sensor_id;sensor_type;location;lat;lon;timestamp;P1;durP1;ratioP1;P2;durP2;ratioP2
77076;SDS011;66003;52.286;104.306;2022-12-28T00:00:05;13.27;;;5.78;;
77076;SDS011;66003;52.286;104.306;2022-12-28T00:02:33;4.10;;;2.83;;
77076;SDS011;66003;52.286;104.306;2022-12-28T00:05:00;8.88;;;4.00;;
77076;SDS011;66003;52.286;104.306;2022-12-28T00:07:26;13.57;;;3.55;;
77076;SDS011;66003;52.286;104.306;2022-12-28T00:09:52;3.45;;;2.30;;
77076;SDS011;66003;52.286;104.306;2022-12-28T00:12:18;34.22;;;12.98;;
77076;SDS011;66003;52.286;104.306;2022-12-28T00:14:44;6.13;;;5.63;;
77076;SDS011;66003;52.286;104.306;2022-12-28T00:17:10;8.27;;;4.88;;
77076;SDS011;66003;52.286;104.306;2022-12-28T00:19:36;17.77;;;11.60;;
77076;SDS011;66003;52.286;104.306;2022-12-28T00:22:02;19.42;;;6.38;;
77076;SDS011;66003;52.286;104.306;2022-12-28T00:24:28;15.23;;;9.30;;
77076;SDS011;66003;52.286;104.306;2022-12-28T00:26:54;12.93;;;7.50;;
77076;SDS011;66003;52.286;104.306;2022-12-28T00:29:21;7.43;;;5.53;;
77076;SDS011;66003;52.286;104.306;2022-12-28T00:31:47;14.52;;;5.55;;
77076;SDS011;66003;52.286;104.306;2022-12-28T00:34:14;10.10;;;7.05;;
77076;SDS011;66003;52.286;104.306;2022-12-28T00:36:40;18.70;;;10.23;;
77076;SDS011;66003;52.286;104.306;2022-12-28T00:39:06;12.88;;;11.35;;
77076;SDS011;66003;52.286;104.306;2022-12-28T00:41:32;7.18;;;4.75;;
77076;SDS011;66003;52.286;104.306;2022-12-28T00:43:59;7.07;;;5.65;;
77076;SDS011;66003;52.286;104.306;2022-12-28T00:46:25;9.57;;;5.68;;
77076;SDS011;66003;52.286;104.306;2022-12-28T00:48:51;41.47;;;18.92;;
77076;SDS011;66003;52.286;104.306;2022-12-28T00:51:18;25.08;;;15.20;;
77076;SDS011;66003;52.286;104.306;2022-12-28T00:53:44;15.57;;;6.80;;
77076;SDS011;66003;52.286;104.306;2022-12-28T00:56:11;8.02;;;5.72;;
77076;SDS011;66003;52.286;104.306;2022-12-28T00:58:40;3.88;;;3.15;;
77076;SDS011;66003;52.286;104.306;2022-12-28T01:01:09;6.88;;;5.00;;
77076;SDS011;66003;52.286;104.306;2022-12-28T01:03:43;17.77;;;9.98;;
77076;SDS011;66003;52.286;104.306;2022-12-28T01:06:10;8.60;;;5.63;;
77076;SDS011;66003;52.286;104.306;2022-12-28T01:08:38;33.90;;;13.85;;
77076;SDS011;66003;52.286;104.306;2022-12-28T01:11:26;5.75;;;4.90;;
77076;SDS011;66003;52.286;104.306;2022-12-28T01:13:53;5.38;;;5.03;;
77076;SDS011;66003;52.286;104.306;2022-12-28T01:16:22;19.80;;;12.98;;
77076;SDS011;66003;52.286;104.306;2022-12-28T01:18:50;20.02;;;11.32;;
77076;SDS011;66003;52.286;104.306;2022-12-28T01:21:19;19.55;;;9.70;;
77076;SDS011;66003;52.286;104.306;2022-12-28T01:23:46;3.53;;;3.22;;
77076;SDS011;66003;52.286;104.306;2022-12-28T01:26:13;40.88;;;20.05;;
77076;SDS011;66003;52.286;104.306;2022-12-28T01:28:40;34.83;;;14.85;;
77076;SDS011;66003;52.286;104.306;2022-12-28T01:31:11;7.72;;;4.95;;
77076;SDS011;66003;52.286;104.306;2022-12-28T01:33:39;34.40;;;17.45;;
77076;SDS011;66003;52.286;104.306;2022-12-28T01:36:06;27.70;;;13.27;;
77076;SDS011;66003;52.286;104.306;2022-12-28T01:38:33;9.77;;;8.02;;
77076;SDS011;66003;52.286;104.306;2022-12-28T01:41:00;18.92;;;10.27;;
77076;SDS011;66003;52.286;104.306;2022-12-28T01:43:34;26.80;;;14.98;;
77076;SDS011;66003;52.286;104.306;2022-12-28T01:46:04;29.23;;;14.30;;
77076;SDS011;66003;52.286;104.306;2022-12-28T01:48:30;12.85;;;5.18;;
77076;SDS011;66003;52.286;104.306;2022-12-28T01:50:59;4.32;;;4.03;;
77076;SDS011;66003;52.286;104.306;2022-12-28T01:53:26;10.75;;;5.25;;
77076;SDS011;66003;52.286;104.306;2022-12-28T01:55:52;12.25;;;3.78;;
77076;SDS011;66003;52.286;104.306;2022-12-28T01:58:21;6.43;;;4.32;;
77076;SDS011;66003;52.286;104.306;2022-12-28T02:00:53;6.07;;;2.47;;
77076;SDS011;66003;52.286;104.306;2022-12-28T02:03:22;11.15;;;6.07;;
77076;SDS011;66003;52.286;104.306;2022-12-28T02:05:53;2.33;;;2.10;;
77076;SDS011;66003;52.286;104.306;2022-12-28T02:08:23;11.77;;;7.57;;
77076;SDS011;66003;52.286;104.306;2022-12-28T02:10:54;13.90;;;7.45;;
77076;SDS011;66003;52.286;104.306;2022-12-28T02:13:21;23.42;;;9.63;;
77076;SDS011;66003;52.286;104.306;2022-12-28T02:16:09;27.85;;;13.48;;
77076;SDS011;66003;52.286;104.306;2022-12-28T02:18:36;8.70;;;6.10;;
77076;SDS011;66003;52.286;104.306;2022-12-28T02:26:15;25.50;;;9.15;;
77076;SDS011;66003;52.286;104.306;2022-12-28T02:29:06;8.88;;;5.65;;
77076;SDS011;66003;52.286;104.306;2022-12-28T02:34:21;25.77;;;14.27;;
77076;SDS011;66003;52.286;104.306;2022-12-28T02:37:04;11.48;;;8.20;;
77076;SDS011;66003;52.286;104.306;2022-12-28T02:39:57;9.05;;;6.57;;
77076;SDS011;66003;52.286;104.306;2022-12-28T02:42:29;6.55;;;4.63;;
77076;SDS011;66003;52.286;104.306;2022-12-28T02:44:56;21.90;;;12.93;;
77076;SDS011;66003;52.286;104.306;2022-12-28T02:47:41;10.80;;;7.30;;
77076;SDS011;66003;52.286;104.306;2022-12-28T02:56:41;9.88;;;5.65;;
77076;SDS011;66003;52.286;104.306;2022-12-28T03:09:41;17.48;;;11.90;;
77076;SDS011;66003;52.286;104.306;2022-12-28T03:12:15;17.17;;;11.05;;
77076;SDS011;66003;52.286;104.306;2022-12-28T03:15:07;25.48;;;15.02;;
77076;SDS011;66003;52.286;104.306;2022-12-28T03:17:38;33.88;;;16.50;;
77076;SDS011;66003;52.286;104.306;2022-12-28T03:20:27;34.47;;;17.42;;
77076;SDS011;66003;52.286;104.306;2022-12-28T03:23:16;49.47;;;22.75;;
77076;SDS011;66003;52.286;104.306;2022-12-28T03:26:03;47.58;;;24.52;;
77076;SDS011;66003;52.286;104.306;2022-12-28T03:28:52;21.90;;;13.88;;
77076;SDS011;66003;52.286;104.306;2022-12-28T03:31:38;27.02;;;15.70;;
77076;SDS011;66003;52.286;104.306;2022-12-28T03:34:06;24.70;;;12.95;;
77076;SDS011;66003;52.286;104.306;2022-12-28T03:42:17;34.95;;;15.55;;
77076;SDS011;66003;52.286;104.306;2022-12-28T03:48:01;39.75;;;18.98;;
77076;SDS011;66003;52.286;104.306;2022-12-28T03:50:29;33.55;;;19.10;;
77076;SDS011;66003;52.286;104.306;2022-12-28T03:52:59;28.58;;;16.48;;
77076;SDS011;66003;52.286;104.306;2022-12-28T03:55:25;28.17;;;13.18;;
77076;SDS011;66003;52.286;104.306;2022-12-28T03:57:55;13.60;;;9.38;;
77076;SDS011;66003;52.286;104.306;2022-12-28T04:00:21;30.95;;;16.95;;
77076;SDS011;66003;52.286;104.306;2022-12-28T04:02:47;28.85;;;14.48;;
77076;SDS011;66003;52.286;104.306;2022-12-28T04:05:13;29.98;;;13.60;;
77076;SDS011;66003;52.286;104.306;2022-12-28T04:07:39;30.75;;;15.55;;
77076;SDS011;66003;52.286;104.306;2022-12-28T04:10:06;35.08;;;17.38;;
77076;SDS011;66003;52.286;104.306;2022-12-28T04:12:32;38.92;;;18.38;;
77076;SDS011;66003;52.286;104.306;2022-12-28T04:14:58;31.50;;;17.17;;
77076;SDS011;66003;52.286;104.306;2022-12-28T04:17:24;9.95;;;8.02;;
77076;SDS011;66003;52.286;104.306;2022-12-28T04:19:50;24.92;;;15.38;;
77076;SDS011;66003;52.286;104.306;2022-12-28T04:22:16;37.95;;;18.42;;
77076;SDS011;66003;52.286;104.306;2022-12-28T04:24:42;37.40;;;17.00;;
77076;SDS011;66003;52.286;104.306;2022-12-28T04:27:08;15.18;;;8.52;;
77076;SDS011;66003;52.286;104.306;2022-12-28T04:29:35;18.15;;;9.65;;
77076;SDS011;66003;52.286;104.306;2022-12-28T04:32:01;14.18;;;11.40;;
77076;SDS011;66003;52.286;104.306;2022-12-28T04:34:27;13.43;;;8.57;;
77076;SDS011;66003;52.286;104.306;2022-12-28T04:36:53;23.80;;;12.75;;
77076;SDS011;66003;52.286;104.306;2022-12-28T04:39:19;15.57;;;8.18;;
77076;SDS011;66003;52.286;104.306;2022-12-28T04:41:46;12.52;;;9.48;;
77076;SDS011;66003;52.286;104.306;2022-12-28T04:44:12;20.17;;;12.13;;
77076;SDS011;66003;52.286;104.306;2022-12-28T04:46:38;38.65;;;16.67;;
77076;SDS011;66003;52.286;104.306;2022-12-28T04:49:04;24.25;;;17.02;;
77076;SDS011;66003;52.286;104.306;2022-12-28T04:51:30;16.05;;;8.02;;
77076;SDS011;66003;52.286;104.306;2022-12-28T04:53:57;18.60;;;11.52;;
77076;SDS011;66003;52.286;104.306;2022-12-28T04:56:23;30.50;;;13.02;;
77076;SDS011;66003;52.286;104.306;2022-12-28T04:58:54;19.00;;;10.77;;
77076;SDS011;66003;52.286;104.306;2022-12-28T05:01:21;31.40;;;16.35;;
77076;SDS011;66003;52.286;104.306;2022-12-28T05:03:48;23.15;;;11.85;;
77076;SDS011;66003;52.286;104.306;2022-12-28T05:06:17;36.95;;;17.77;;
77076;SDS011;66003;52.286;104.306;2022-12-28T05:08:45;28.67;;;13.85;;
77076;SDS011;66003;52.286;104.306;2022-12-28T05:11:13;24.63;;;13.75;;
77076;SDS011;66003;52.286;104.306;2022-12-28T05:13:45;26.30;;;14.98;;
77076;SDS011;66003;52.286;104.306;2022-12-28T05:16:12;3.55;;;3.25;;
77076;SDS011;66003;52.286;104.306;2022-12-28T05:18:40;3.00;;;1.90;;
77076;SDS011;66003;52.286;104.306;2022-12-28T05:21:07;15.07;;;9.43;;
77076;SDS011;66003;52.286;104.306;2022-12-28T05:23:35;22.38;;;8.20;;
77076;SDS011;66003;52.286;104.306;2022-12-28T05:26:03;17.23;;;8.32;;
77076;SDS011;66003;52.286;104.306;2022-12-28T05:28:30;26.25;;;11.90;;
77076;SDS011;66003;52.286;104.306;2022-12-28T05:30:59;13.50;;;6.38;;
77076;SDS011;66003;52.286;104.306;2022-12-28T05:33:28;16.63;;;7.95;;
77076;SDS011;66003;52.286;104.306;2022-12-28T05:35:55;18.25;;;9.55;;
77076;SDS011;66003;52.286;104.306;2022-12-28T05:38:21;38.25;;;15.63;;
77076;SDS011;66003;52.286;104.306;2022-12-28T05:40:47;30.33;;;14.43;;
77076;SDS011;66003;52.286;104.306;2022-12-28T05:43:13;10.68;;;6.45;;
77076;SDS011;66003;52.286;104.306;2022-12-28T05:45:39;26.88;;;12.18;;
77076;SDS011;66003;52.286;104.306;2022-12-28T05:48:05;8.43;;;5.40;;
77076;SDS011;66003;52.286;104.306;2022-12-28T05:50:31;5.97;;;5.20;;
77076;SDS011;66003;52.286;104.306;2022-12-28T05:52:58;18.55;;;9.57;;
77076;SDS011;66003;52.286;104.306;2022-12-28T05:55:24;17.17;;;8.60;;
77076;SDS011;66003;52.286;104.306;2022-12-28T05:57:52;29.63;;;12.73;;
77076;SDS011;66003;52.286;104.306;2022-12-28T06:00:20;10.32;;;6.70;;
77076;SDS011;66003;52.286;104.306;2022-12-28T06:02:46;7.53;;;5.63;;
77076;SDS011;66003;52.286;104.306;2022-12-28T06:05:12;8.75;;;5.57;;
77076;SDS011;66003;52.286;104.306;2022-12-28T06:07:38;13.20;;;7.32;;
77076;SDS011;66003;52.286;104.306;2022-12-28T06:10:04;14.80;;;7.75;;
77076;SDS011;66003;52.286;104.306;2022-12-28T06:12:31;25.63;;;10.90;;
77076;SDS011;66003;52.286;104.306;2022-12-28T06:14:57;18.55;;;8.35;;
77076;SDS011;66003;52.286;104.306;2022-12-28T06:17:24;19.15;;;9.32;;
77076;SDS011;66003;52.286;104.306;2022-12-28T06:19:50;13.95;;;8.07;;
77076;SDS011;66003;52.286;104.306;2022-12-28T06:22:16;29.08;;;11.30;;
77076;SDS011;66003;52.286;104.306;2022-12-28T06:24:42;27.88;;;11.75;;
77076;SDS011;66003;52.286;104.306;2022-12-28T06:27:08;16.08;;;8.57;;
77076;SDS011;66003;52.286;104.306;2022-12-28T06:29:34;17.40;;;10.05;;
77076;SDS011;66003;52.286;104.306;2022-12-28T06:32:00;35.63;;;12.40;;
77076;SDS011;66003;52.286;104.306;2022-12-28T06:34:26;16.33;;;7.88;;
77076;SDS011;66003;52.286;104.306;2022-12-28T06:36:52;22.58;;;10.60;;
77076;SDS011;66003;52.286;104.306;2022-12-28T06:39:20;20.98;;;9.40;;
77076;SDS011;66003;52.286;104.306;2022-12-28T06:41:47;19.27;;;11.23;;
77076;SDS011;66003;52.286;104.306;2022-12-28T06:44:13;17.60;;;9.43;;
77076;SDS011;66003;52.286;104.306;2022-12-28T06:46:39;19.77;;;12.57;;
77076;SDS011;66003;52.286;104.306;2022-12-28T06:49:06;22.38;;;8.30;;
77076;SDS011;66003;52.286;104.306;2022-12-28T06:51:33;14.68;;;8.35;;
77076;SDS011;66003;52.286;104.306;2022-12-28T06:54:03;17.45;;;6.18;;
77076;SDS011;66003;52.286;104.306;2022-12-28T06:56:30;16.27;;;9.45;;
77076;SDS011;66003;52.286;104.306;2022-12-28T06:59:06;16.95;;;8.95;;
77076;SDS011;66003;52.286;104.306;2022-12-28T07:01:37;17.95;;;7.85;;
77076;SDS011;66003;52.286;104.306;2022-12-28T07:04:07;21.75;;;9.85;;
77076;SDS011;66003;52.286;104.306;2022-12-28T07:06:34;19.80;;;9.68;;
77076;SDS011;66003;52.286;104.306;2022-12-28T07:09:06;19.42;;;8.73;;
77076;SDS011;66003;52.286;104.306;2022-12-28T07:11:37;19.08;;;9.82;;
77076;SDS011;66003;52.286;104.306;2022-12-28T07:14:04;18.10;;;9.18;;
77076;SDS011;66003;52.286;104.306;2022-12-28T07:16:30;12.93;;;6.50;;
77076;SDS011;66003;52.286;104.306;2022-12-28T07:18:57;15.93;;;8.05;;
77076;SDS011;66003;52.286;104.306;2022-12-28T07:21:25;20.13;;;8.13;;
77076;SDS011;66003;52.286;104.306;2022-12-28T07:23:53;10.15;;;5.57;;
77076;SDS011;66003;52.286;104.306;2022-12-28T07:26:25;18.17;;;8.23;;
77076;SDS011;66003;52.286;104.306;2022-12-28T07:28:55;16.17;;;8.90;;
77076;SDS011;66003;52.286;104.306;2022-12-28T07:31:23;14.10;;;7.13;;
77076;SDS011;66003;52.286;104.306;2022-12-28T07:33:53;16.10;;;7.35;;
77076;SDS011;66003;52.286;104.306;2022-12-28T07:36:21;14.90;;;7.85;;
77076;SDS011;66003;52.286;104.306;2022-12-28T07:38:48;16.85;;;8.05;;
77076;SDS011;66003;52.286;104.306;2022-12-28T07:41:15;12.57;;;7.13;;
77076;SDS011;66003;52.286;104.306;2022-12-28T07:43:44;12.63;;;7.18;;
77076;SDS011;66003;52.286;104.306;2022-12-28T07:46:11;13.80;;;7.05;;
77076;SDS011;66003;52.286;104.306;2022-12-28T07:48:40;18.42;;;7.13;;
77076;SDS011;66003;52.286;104.306;2022-12-28T07:56:01;18.45;;;8.30;;
77076;SDS011;66003;52.286;104.306;2022-12-28T07:58:28;15.13;;;9.07;;
77076;SDS011;66003;52.286;104.306;2022-12-28T08:01:01;20.42;;;11.23;;
77076;SDS011;66003;52.286;104.306;2022-12-28T08:03:37;25.85;;;14.25;;
77076;SDS011;66003;52.286;104.306;2022-12-28T08:06:05;33.28;;;14.65;;
77076;SDS011;66003;52.286;104.306;2022-12-28T08:08:37;43.60;;;19.98;;
77076;SDS011;66003;52.286;104.306;2022-12-28T08:11:09;37.20;;;17.35;;
77076;SDS011;66003;52.286;104.306;2022-12-28T08:13:47;55.33;;;22.48;;
77076;SDS011;66003;52.286;104.306;2022-12-28T08:16:16;44.45;;;15.82;;
77076;SDS011;66003;52.286;104.306;2022-12-28T08:18:43;40.25;;;21.00;;
77076;SDS011;66003;52.286;104.306;2022-12-28T08:21:11;40.50;;;22.60;;
77076;SDS011;66003;52.286;104.306;2022-12-28T08:23:41;39.35;;;18.00;;
77076;SDS011;66003;52.286;104.306;2022-12-28T08:26:12;39.25;;;18.10;;
77076;SDS011;66003;52.286;104.306;2022-12-28T08:28:40;32.35;;;16.08;;
77076;SDS011;66003;52.286;104.306;2022-12-28T08:31:08;38.38;;;18.55;;
77076;SDS011;66003;52.286;104.306;2022-12-28T08:33:40;41.95;;;19.13;;
77076;SDS011;66003;52.286;104.306;2022-12-28T08:36:07;35.72;;;16.25;;
77076;SDS011;66003;52.286;104.306;2022-12-28T08:38:34;31.83;;;17.80;;
77076;SDS011;66003;52.286;104.306;2022-12-28T08:41:05;39.75;;;17.52;;
77076;SDS011;66003;52.286;104.306;2022-12-28T08:43:33;39.38;;;19.48;;
77076;SDS011;66003;52.286;104.306;2022-12-28T08:48:27;46.97;;;16.55;;
77076;SDS011;66003;52.286;104.306;2022-12-28T08:50:54;30.35;;;16.23;;
77076;SDS011;66003;52.286;104.306;2022-12-28T08:53:20;28.25;;;14.88;;
77076;SDS011;66003;52.286;104.306;2022-12-28T08:55:49;25.10;;;13.05;;
77076;SDS011;66003;52.286;104.306;2022-12-28T08:58:16;13.82;;;8.48;;
77076;SDS011;66003;52.286;104.306;2022-12-28T09:00:42;25.55;;;11.95;;
77076;SDS011;66003;52.286;104.306;2022-12-28T09:03:08;24.65;;;10.23;;
77076;SDS011;66003;52.286;104.306;2022-12-28T09:05:38;53.70;;;24.70;;
77076;SDS011;66003;52.286;104.306;2022-12-28T09:08:04;24.50;;;11.15;;
77076;SDS011;66003;52.286;104.306;2022-12-28T09:10:30;39.08;;;17.05;;
77076;SDS011;66003;52.286;104.306;2022-12-28T09:12:56;36.08;;;17.92;;
77076;SDS011;66003;52.286;104.306;2022-12-28T09:15:22;6.70;;;6.03;;
77076;SDS011;66003;52.286;104.306;2022-12-28T09:17:49;18.67;;;8.07;;
77076;SDS011;66003;52.286;104.306;2022-12-28T09:20:15;48.13;;;20.27;;
77076;SDS011;66003;52.286;104.306;2022-12-28T09:22:41;46.42;;;22.60;;
77076;SDS011;66003;52.286;104.306;2022-12-28T09:25:07;36.22;;;20.23;;
77076;SDS011;66003;52.286;104.306;2022-12-28T09:27:33;30.13;;;14.73;;
77076;SDS011;66003;52.286;104.306;2022-12-28T09:29:59;31.10;;;13.27;;
77076;SDS011;66003;52.286;104.306;2022-12-28T09:32:25;24.98;;;12.70;;
77076;SDS011;66003;52.286;104.306;2022-12-28T09:34:51;20.42;;;12.05;;
77076;SDS011;66003;52.286;104.306;2022-12-28T09:37:17;22.15;;;11.38;;
77076;SDS011;66003;52.286;104.306;2022-12-28T09:39:44;15.70;;;7.75;;
77076;SDS011;66003;52.286;104.306;2022-12-28T09:42:12;45.40;;;19.90;;
77076;SDS011;66003;52.286;104.306;2022-12-28T09:44:53;38.85;;;18.45;;
77076;SDS011;66003;52.286;104.306;2022-12-28T09:47:48;36.35;;;18.60;;
77076;SDS011;66003;52.286;104.306;2022-12-28T09:50:24;41.28;;;19.10;;
77076;SDS011;66003;52.286;104.306;2022-12-28T09:56:01;8.95;;;5.15;;
77076;SDS011;66003;52.286;104.306;2022-12-28T10:00:59;32.50;;;16.48;;
77076;SDS011;66003;52.286;104.306;2022-12-28T10:03:35;27.63;;;13.85;;
77076;SDS011;66003;52.286;104.306;2022-12-28T10:06:26;20.95;;;12.50;;
77076;SDS011;66003;52.286;104.306;2022-12-28T10:08:53;6.30;;;4.32;;
77076;SDS011;66003;52.286;104.306;2022-12-28T10:11:23;8.48;;;6.60;;
77076;SDS011;66003;52.286;104.306;2022-12-28T10:13:53;32.58;;;16.20;;
77076;SDS011;66003;52.286;104.306;2022-12-28T10:16:22;10.32;;;8.10;;
77076;SDS011;66003;52.286;104.306;2022-12-28T10:18:50;27.60;;;13.75;;
77076;SDS011;66003;52.286;104.306;2022-12-28T10:21:17;16.95;;;5.65;;
77076;SDS011;66003;52.286;104.306;2022-12-28T10:23:46;10.70;;;7.32;;
77076;SDS011;66003;52.286;104.306;2022-12-28T10:26:15;21.73;;;8.52;;
77076;SDS011;66003;52.286;104.306;2022-12-28T10:28:45;8.40;;;6.93;;
77076;SDS011;66003;52.286;104.306;2022-12-28T10:31:13;17.08;;;10.20;;
77076;SDS011;66003;52.286;104.306;2022-12-28T10:33:49;12.02;;;5.95;;
77076;SDS011;66003;52.286;104.306;2022-12-28T10:36:16;18.70;;;10.82;;
77076;SDS011;66003;52.286;104.306;2022-12-28T10:38:47;13.43;;;12.15;;
77076;SDS011;66003;52.286;104.306;2022-12-28T10:41:17;28.42;;;14.23;;
77076;SDS011;66003;52.286;104.306;2022-12-28T10:43:45;38.83;;;16.88;;
77076;SDS011;66003;52.286;104.306;2022-12-28T10:46:18;40.80;;;20.38;;
77076;SDS011;66003;52.286;104.306;2022-12-28T10:48:49;15.95;;;5.95;;
77076;SDS011;66003;52.286;104.306;2022-12-28T10:51:21;61.83;;;28.40;;
77076;SDS011;66003;52.286;104.306;2022-12-28T10:53:50;26.63;;;10.00;;
77076;SDS011;66003;52.286;104.306;2022-12-28T10:58:54;20.98;;;10.05;;
77076;SDS011;66003;52.286;104.306;2022-12-28T11:01:43;44.22;;;20.73;;
77076;SDS011;66003;52.286;104.306;2022-12-28T11:04:16;49.13;;;22.35;;
77076;SDS011;66003;52.286;104.306;2022-12-28T11:07:00;41.97;;;20.27;;
77076;SDS011;66003;52.286;104.306;2022-12-28T11:11:53;20.60;;;9.52;;
77076;SDS011;66003;52.286;104.306;2022-12-28T11:14:24;8.27;;;4.45;;
77076;SDS011;66003;52.286;104.306;2022-12-28T11:16:56;16.17;;;10.85;;
77076;SDS011;66003;52.286;104.306;2022-12-28T11:19:28;10.13;;;6.78;;
77076;SDS011;66003;52.286;104.306;2022-12-28T11:21:55;20.63;;;11.52;;
77076;SDS011;66003;52.286;104.306;2022-12-28T11:24:22;30.10;;;12.27;;
77076;SDS011;66003;52.286;104.306;2022-12-28T11:26:51;22.73;;;13.07;;
77076;SDS011;66003;52.286;104.306;2022-12-28T11:29:17;21.00;;;11.60;;
77076;SDS011;66003;52.286;104.306;2022-12-28T11:34:19;16.65;;;9.75;;
77076;SDS011;66003;52.286;104.306;2022-12-28T11:36:50;29.67;;;15.52;;
77076;SDS011;66003;52.286;104.306;2022-12-28T11:41:56;14.05;;;6.88;;
77076;SDS011;66003;52.286;104.306;2022-12-28T11:47:18;13.50;;;7.50;;
77076;SDS011;66003;52.286;104.306;2022-12-28T11:49:51;11.63;;;6.75;;
77076;SDS011;66003;52.286;104.306;2022-12-28T11:57:32;3.58;;;3.17;;
77076;SDS011;66003;52.286;104.306;2022-12-28T12:03:02;8.93;;;4.68;;
77076;SDS011;66003;52.286;104.306;2022-12-28T12:13:55;20.88;;;12.32;;
77076;SDS011;66003;52.286;104.306;2022-12-28T12:16:30;23.50;;;13.57;;
77076;SDS011;66003;52.286;104.306;2022-12-28T12:19:03;18.73;;;10.13;;
77076;SDS011;66003;52.286;104.306;2022-12-28T12:21:34;19.45;;;10.25;;
77076;SDS011;66003;52.286;104.306;2022-12-28T12:24:09;11.38;;;7.25;;
77076;SDS011;66003;52.286;104.306;2022-12-28T12:26:44;10.38;;;7.40;;
77076;SDS011;66003;52.286;104.306;2022-12-28T12:29:18;10.98;;;6.85;;
77076;SDS011;66003;52.286;104.306;2022-12-28T12:31:53;9.77;;;6.10;;
77076;SDS011;66003;52.286;104.306;2022-12-28T12:34:37;13.80;;;7.93;;
77076;SDS011;66003;52.286;104.306;2022-12-28T12:45:46;6.70;;;5.38;;
77076;SDS011;66003;52.286;104.306;2022-12-28T12:51:13;13.40;;;8.35;;
77076;SDS011;66003;52.286;104.306;2022-12-28T12:59:17;14.68;;;8.27;;
77076;SDS011;66003;52.286;104.306;2022-12-28T13:04:26;7.90;;;4.03;;
77076;SDS011;66003;52.286;104.306;2022-12-28T13:06:58;7.50;;;5.13;;
77076;SDS011;66003;52.286;104.306;2022-12-28T13:09:27;21.75;;;11.65;;
77076;SDS011;66003;52.286;104.306;2022-12-28T13:11:57;17.40;;;7.47;;
77076;SDS011;66003;52.286;104.306;2022-12-28T13:14:24;4.80;;;4.00;;
77076;SDS011;66003;52.286;104.306;2022-12-28T13:16:51;11.98;;;5.38;;
77076;SDS011;66003;52.286;104.306;2022-12-28T13:19:21;15.63;;;8.27;;
77076;SDS011;66003;52.286;104.306;2022-12-28T13:21:49;13.07;;;6.32;;
77076;SDS011;66003;52.286;104.306;2022-12-28T13:24:20;11.60;;;7.78;;
77076;SDS011;66003;52.286;104.306;2022-12-28T13:26:47;11.02;;;6.05;;
77076;SDS011;66003;52.286;104.306;2022-12-28T13:29:18;11.82;;;9.60;;
77076;SDS011;66003;52.286;104.306;2022-12-28T13:31:48;21.95;;;12.25;;
77076;SDS011;66003;52.286;104.306;2022-12-28T13:36:53;17.90;;;7.60;;
77076;SDS011;66003;52.286;104.306;2022-12-28T13:39:21;7.18;;;5.70;;
77076;SDS011;66003;52.286;104.306;2022-12-28T13:41:50;6.78;;;4.95;;
77076;SDS011;66003;52.286;104.306;2022-12-28T13:47:19;13.45;;;8.90;;
77076;SDS011;66003;52.286;104.306;2022-12-28T13:49:55;14.23;;;4.82;;
77076;SDS011;66003;52.286;104.306;2022-12-28T13:55:13;14.45;;;8.27;;
77076;SDS011;66003;52.286;104.306;2022-12-28T13:57:43;10.90;;;7.38;;
77076;SDS011;66003;52.286;104.306;2022-12-28T14:00:11;17.45;;;7.53;;
77076;SDS011;66003;52.286;104.306;2022-12-28T14:02:42;7.75;;;3.85;;
77076;SDS011;66003;52.286;104.306;2022-12-28T14:05:14;33.40;;;17.35;;
77076;SDS011;66003;52.286;104.306;2022-12-28T14:07:46;16.85;;;8.82;;
77076;SDS011;66003;52.286;104.306;2022-12-28T14:10:14;30.83;;;13.88;;
77076;SDS011;66003;52.286;104.306;2022-12-28T14:12:42;14.15;;;7.95;;
77076;SDS011;66003;52.286;104.306;2022-12-28T14:15:10;20.55;;;10.05;;
77076;SDS011;66003;52.286;104.306;2022-12-28T14:17:38;22.80;;;11.00;;
77076;SDS011;66003;52.286;104.306;2022-12-28T14:20:05;18.27;;;9.73;;
77076;SDS011;66003;52.286;104.306;2022-12-28T14:22:34;10.48;;;5.80;;
77076;SDS011;66003;52.286;104.306;2022-12-28T14:28:05;11.63;;;6.22;;
77076;SDS011;66003;52.286;104.306;2022-12-28T14:30:38;7.63;;;5.57;;
77076;SDS011;66003;52.286;104.306;2022-12-28T14:33:13;11.98;;;4.50;;
77076;SDS011;66003;52.286;104.306;2022-12-28T14:35:48;15.20;;;9.05;;
77076;SDS011;66003;52.286;104.306;2022-12-28T14:38:18;12.13;;;5.03;;
77076;SDS011;66003;52.286;104.306;2022-12-28T14:40:54;3.80;;;1.85;;
77076;SDS011;66003;52.286;104.306;2022-12-28T14:43:23;9.25;;;4.40;;
77076;SDS011;66003;52.286;104.306;2022-12-28T14:45:56;4.80;;;4.13;;
77076;SDS011;66003;52.286;104.306;2022-12-28T14:51:01;10.05;;;5.78;;
77076;SDS011;66003;52.286;104.306;2022-12-28T14:56:32;6.28;;;3.45;;
77076;SDS011;66003;52.286;104.306;2022-12-28T14:58:59;2.00;;;0.85;;
77076;SDS011;66003;52.286;104.306;2022-12-28T15:01:39;7.13;;;4.13;;
77076;SDS011;66003;52.286;104.306;2022-12-28T15:06:48;4.97;;;2.53;;
77076;SDS011;66003;52.286;104.306;2022-12-28T15:09:14;8.40;;;3.38;;
77076;SDS011;66003;52.286;104.306;2022-12-28T15:11:42;3.25;;;2.97;;
77076;SDS011;66003;52.286;104.306;2022-12-28T15:16:36;5.05;;;2.95;;
77076;SDS011;66003;52.286;104.306;2022-12-28T15:19:03;1.58;;;1.38;;
77076;SDS011;66003;52.286;104.306;2022-12-28T15:21:29;1.88;;;1.65;;
77076;SDS011;66003;52.286;104.306;2022-12-28T15:23:57;2.40;;;0.63;;
77076;SDS011;66003;52.286;104.306;2022-12-28T15:26:23;4.93;;;2.38;;
77076;SDS011;66003;52.286;104.306;2022-12-28T15:28:51;2.67;;;1.58;;
77076;SDS011;66003;52.286;104.306;2022-12-28T15:31:18;1.98;;;1.80;;
77076;SDS011;66003;52.286;104.306;2022-12-28T15:33:46;3.63;;;1.13;;
77076;SDS011;66003;52.286;104.306;2022-12-28T15:36:14;7.28;;;3.10;;
77076;SDS011;66003;52.286;104.306;2022-12-28T15:38:47;2.22;;;1.85;;
77076;SDS011;66003;52.286;104.306;2022-12-28T15:41:13;5.47;;;1.75;;
77076;SDS011;66003;52.286;104.306;2022-12-28T15:43:59;2.83;;;2.65;;
77076;SDS011;66003;52.286;104.306;2022-12-28T15:46:26;6.43;;;3.38;;
77076;SDS011;66003;52.286;104.306;2022-12-28T15:48:52;0.77;;;0.73;;
77076;SDS011;66003;52.286;104.306;2022-12-28T15:51:18;1.42;;;1.25;;
77076;SDS011;66003;52.286;104.306;2022-12-28T15:53:44;0.90;;;0.70;;
77076;SDS011;66003;52.286;104.306;2022-12-28T15:56:20;2.22;;;1.15;;
77076;SDS011;66003;52.286;104.306;2022-12-28T15:58:57;3.47;;;1.52;;
77076;SDS011;66003;52.286;104.306;2022-12-28T16:01:25;1.05;;;0.90;;
77076;SDS011;66003;52.286;104.306;2022-12-28T16:03:54;2.97;;;1.20;;
77076;SDS011;66003;52.286;104.306;2022-12-28T16:06:22;4.07;;;1.17;;
77076;SDS011;66003;52.286;104.306;2022-12-28T16:08:53;1.77;;;1.63;;
77076;SDS011;66003;52.286;104.306;2022-12-28T16:11:21;1.73;;;1.23;;
77076;SDS011;66003;52.286;104.306;2022-12-28T16:13:51;3.45;;;1.25;;
77076;SDS011;66003;52.286;104.306;2022-12-28T16:16:19;2.15;;;1.45;;